sensor_id;sensor_type;location;lat;lon;timestamp;P1;durP1;ratioP1;P2;durP2;ratioP2
38843;SDS011;24596;48.080;8.362;2023-07-20T00:01:27;9.65;;;3.72;;
38843;SDS011;24596;48.080;8.362;2023-07-20T00:03:52;12.40;;;4.27;;
38843;SDS011;24596;48.080;8.362;2023-07-20T00:06:23;9.57;;;3.30;;
38843;SDS011;24596;48.080;8.362;2023-07-20T00:08:49;12.13;;;3.67;;
38843;SDS011;24596;48.080;8.362;2023-07-20T00:11:15;9.02;;;3.40;;
38843;SDS011;24596;48.080;8.362;2023-07-20T00:13:40;7.55;;;3.60;;
38843;SDS011;24596;48.080;8.362;2023-07-20T00:16:05;10.02;;;3.95;;
38843;SDS011;24596;48.080;8.362;2023-07-20T00:18:33;7.68;;;3.70;;
38843;SDS011;24596;48.080;8.362;2023-07-20T00:21:01;9.32;;;3.95;;
38843;SDS011;24596;48.080;8.362;2023-07-20T00:23:27;9.45;;;3.60;;
38843;SDS011;24596;48.080;8.362;2023-07-20T00:25:52;8.20;;;3.72;;
38843;SDS011;24596;48.080;8.362;2023-07-20T00:28:18;10.07;;;3.47;;
38843;SDS011;24596;48.080;8.362;2023-07-20T00:30:43;10.23;;;3.60;;
38843;SDS011;24596;48.080;8.362;2023-07-20T00:33:11;7.90;;;3.70;;
38843;SDS011;24596;48.080;8.362;2023-07-20T00:35:37;10.05;;;3.95;;
38843;SDS011;24596;48.080;8.362;2023-07-20T00:38:02;10.45;;;3.60;;
38843;SDS011;24596;48.080;8.362;2023-07-20T00:40:28;8.73;;;3.78;;
38843;SDS011;24596;48.080;8.362;2023-07-20T00:42:53;8.30;;;3.57;;
38843;SDS011;24596;48.080;8.362;2023-07-20T00:45:18;12.60;;;3.70;;
38843;SDS011;24596;48.080;8.362;2023-07-20T00:47:43;10.93;;;4.03;;
38843;SDS011;24596;48.080;8.362;2023-07-20T00:50:09;10.55;;;3.72;;
38843;SDS011;24596;48.080;8.362;2023-07-20T00:52:35;7.88;;;3.65;;
38843;SDS011;24596;48.080;8.362;2023-07-20T00:55:04;10.73;;;3.95;;
38843;SDS011;24596;48.080;8.362;2023-07-20T00:57:29;13.48;;;4.90;;
38843;SDS011;24596;48.080;8.362;2023-07-20T00:59:54;11.63;;;5.13;;
38843;SDS011;24596;48.080;8.362;2023-07-20T01:02:20;11.17;;;5.47;;
38843;SDS011;24596;48.080;8.362;2023-07-20T01:04:45;8.82;;;4.35;;
38843;SDS011;24596;48.080;8.362;2023-07-20T01:07:11;9.20;;;4.28;;
38843;SDS011;24596;48.080;8.362;2023-07-20T01:09:42;8.10;;;3.95;;
38843;SDS011;24596;48.080;8.362;2023-07-20T01:14:43;8.07;;;4.07;;
38843;SDS011;24596;48.080;8.362;2023-07-20T01:17:08;9.63;;;3.75;;
38843;SDS011;24596;48.080;8.362;2023-07-20T01:19:33;8.80;;;3.75;;
38843;SDS011;24596;48.080;8.362;2023-07-20T01:22:01;11.02;;;3.88;;
38843;SDS011;24596;48.080;8.362;2023-07-20T01:29:48;10.52;;;3.95;;
38843;SDS011;24596;48.080;8.362;2023-07-20T01:32:16;10.45;;;3.63;;
38843;SDS011;24596;48.080;8.362;2023-07-20T01:34:42;6.55;;;3.70;;
38843;SDS011;24596;48.080;8.362;2023-07-20T01:37:08;13.25;;;3.92;;
38843;SDS011;24596;48.080;8.362;2023-07-20T01:39:33;11.80;;;4.20;;
38843;SDS011;24596;48.080;8.362;2023-07-20T01:41:59;11.27;;;4.43;;
38843;SDS011;24596;48.080;8.362;2023-07-20T01:44:25;11.43;;;3.95;;
38843;SDS011;24596;48.080;8.362;2023-07-20T01:46:50;10.07;;;4.22;;
38843;SDS011;24596;48.080;8.362;2023-07-20T01:49:15;8.87;;;3.93;;
38843;SDS011;24596;48.080;8.362;2023-07-20T01:51:40;7.85;;;3.83;;
38843;SDS011;24596;48.080;8.362;2023-07-20T01:54:05;9.43;;;3.97;;
38843;SDS011;24596;48.080;8.362;2023-07-20T01:56:31;8.88;;;3.83;;
38843;SDS011;24596;48.080;8.362;2023-07-20T01:58:56;9.67;;;4.27;;
38843;SDS011;24596;48.080;8.362;2023-07-20T02:01:21;8.53;;;3.90;;
38843;SDS011;24596;48.080;8.362;2023-07-20T02:03:46;7.07;;;3.87;;
38843;SDS011;24596;48.080;8.362;2023-07-20T02:06:11;7.90;;;4.22;;
38843;SDS011;24596;48.080;8.362;2023-07-20T02:08:37;11.10;;;4.30;;
38843;SDS011;24596;48.080;8.362;2023-07-20T02:11:02;7.20;;;3.87;;
38843;SDS011;24596;48.080;8.362;2023-07-20T02:13:30;7.85;;;4.18;;
38843;SDS011;24596;48.080;8.362;2023-07-20T02:15:55;10.15;;;4.63;;
38843;SDS011;24596;48.080;8.362;2023-07-20T02:18:20;7.32;;;3.75;;
38843;SDS011;24596;48.080;8.362;2023-07-20T02:20:45;8.73;;;4.40;;
38843;SDS011;24596;48.080;8.362;2023-07-20T02:23:11;10.15;;;4.60;;
38843;SDS011;24596;48.080;8.362;2023-07-20T02:25:36;11.55;;;4.80;;
38843;SDS011;24596;48.080;8.362;2023-07-20T02:28:01;12.80;;;4.88;;
38843;SDS011;24596;48.080;8.362;2023-07-20T02:30:27;17.23;;;5.28;;
38843;SDS011;24596;48.080;8.362;2023-07-20T02:32:52;9.30;;;5.10;;
38843;SDS011;24596;48.080;8.362;2023-07-20T02:35:18;15.67;;;4.70;;
38843;SDS011;24596;48.080;8.362;2023-07-20T02:37:43;11.17;;;4.77;;
38843;SDS011;24596;48.080;8.362;2023-07-20T02:40:09;11.15;;;4.55;;
38843;SDS011;24596;48.080;8.362;2023-07-20T02:42:34;7.90;;;4.20;;
38843;SDS011;24596;48.080;8.362;2023-07-20T02:45:00;12.27;;;4.70;;
38843;SDS011;24596;48.080;8.362;2023-07-20T02:47:25;9.57;;;3.88;;
38843;SDS011;24596;48.080;8.362;2023-07-20T02:49:50;9.10;;;4.07;;
38843;SDS011;24596;48.080;8.362;2023-07-20T02:52:15;11.40;;;4.55;;
38843;SDS011;24596;48.080;8.362;2023-07-20T02:54:40;9.80;;;4.10;;
38843;SDS011;24596;48.080;8.362;2023-07-20T02:57:06;7.63;;;3.53;;
38843;SDS011;24596;48.080;8.362;2023-07-20T02:59:31;10.00;;;4.03;;
38843;SDS011;24596;48.080;8.362;2023-07-20T03:01:57;8.38;;;3.70;;
38843;SDS011;24596;48.080;8.362;2023-07-20T03:04:22;8.40;;;4.20;;
38843;SDS011;24596;48.080;8.362;2023-07-20T03:06:48;9.52;;;4.25;;
38843;SDS011;24596;48.080;8.362;2023-07-20T03:09:13;8.25;;;4.78;;
38843;SDS011;24596;48.080;8.362;2023-07-20T03:11:38;10.38;;;4.15;;
38843;SDS011;24596;48.080;8.362;2023-07-20T03:14:04;8.60;;;4.18;;
38843;SDS011;24596;48.080;8.362;2023-07-20T03:16:29;12.10;;;4.80;;
38843;SDS011;24596;48.080;8.362;2023-07-20T03:18:58;10.93;;;4.75;;
38843;SDS011;24596;48.080;8.362;2023-07-20T03:21:23;9.02;;;4.93;;
38843;SDS011;24596;48.080;8.362;2023-07-20T03:23:48;14.27;;;5.63;;
38843;SDS011;24596;48.080;8.362;2023-07-20T03:26:13;10.87;;;5.00;;
38843;SDS011;24596;48.080;8.362;2023-07-20T03:28:38;8.27;;;3.83;;
38843;SDS011;24596;48.080;8.362;2023-07-20T03:31:04;7.35;;;4.45;;
38843;SDS011;24596;48.080;8.362;2023-07-20T03:33:29;9.82;;;5.28;;
38843;SDS011;24596;48.080;8.362;2023-07-20T03:35:55;12.57;;;5.63;;
38843;SDS011;24596;48.080;8.362;2023-07-20T03:38:21;14.38;;;5.28;;
38843;SDS011;24596;48.080;8.362;2023-07-20T03:43:15;8.63;;;4.28;;
38843;SDS011;24596;48.080;8.362;2023-07-20T03:45:40;7.67;;;4.37;;
38843;SDS011;24596;48.080;8.362;2023-07-20T03:48:05;11.47;;;4.73;;
38843;SDS011;24596;48.080;8.362;2023-07-20T03:50:30;10.65;;;4.57;;
38843;SDS011;24596;48.080;8.362;2023-07-20T03:52:56;10.45;;;4.32;;
38843;SDS011;24596;48.080;8.362;2023-07-20T03:55:21;9.43;;;4.07;;
38843;SDS011;24596;48.080;8.362;2023-07-20T03:57:46;8.27;;;4.13;;
38843;SDS011;24596;48.080;8.362;2023-07-20T04:00:11;8.87;;;4.20;;
38843;SDS011;24596;48.080;8.362;2023-07-20T04:02:39;8.43;;;4.35;;
38843;SDS011;24596;48.080;8.362;2023-07-20T04:05:04;12.10;;;5.40;;
38843;SDS011;24596;48.080;8.362;2023-07-20T04:07:30;12.70;;;5.72;;
38843;SDS011;24596;48.080;8.362;2023-07-20T04:09:55;9.37;;;4.50;;
38843;SDS011;24596;48.080;8.362;2023-07-20T04:12:20;9.23;;;4.65;;
38843;SDS011;24596;48.080;8.362;2023-07-20T04:14:45;10.30;;;4.38;;
38843;SDS011;24596;48.080;8.362;2023-07-20T04:17:10;9.23;;;4.22;;
38843;SDS011;24596;48.080;8.362;2023-07-20T04:19:38;7.55;;;3.80;;
38843;SDS011;24596;48.080;8.362;2023-07-20T04:22:03;10.20;;;3.90;;
38843;SDS011;24596;48.080;8.362;2023-07-20T04:24:28;10.95;;;4.13;;
38843;SDS011;24596;48.080;8.362;2023-07-20T04:26:54;7.77;;;3.97;;
38843;SDS011;24596;48.080;8.362;2023-07-20T04:29:19;9.70;;;4.28;;
38843;SDS011;24596;48.080;8.362;2023-07-20T04:31:44;7.13;;;4.20;;
38843;SDS011;24596;48.080;8.362;2023-07-20T04:34:09;9.88;;;4.18;;
38843;SDS011;24596;48.080;8.362;2023-07-20T04:36:35;8.13;;;4.20;;
38843;SDS011;24596;48.080;8.362;2023-07-20T04:39:00;8.40;;;4.30;;
38843;SDS011;24596;48.080;8.362;2023-07-20T04:41:25;7.27;;;3.93;;
38843;SDS011;24596;48.080;8.362;2023-07-20T04:43:51;8.10;;;3.63;;
38843;SDS011;24596;48.080;8.362;2023-07-20T04:46:16;7.50;;;3.92;;
38843;SDS011;24596;48.080;8.362;2023-07-20T04:48:43;10.23;;;4.07;;
38843;SDS011;24596;48.080;8.362;2023-07-20T04:51:08;9.73;;;4.10;;
38843;SDS011;24596;48.080;8.362;2023-07-20T04:53:35;11.40;;;4.32;;
38843;SDS011;24596;48.080;8.362;2023-07-20T04:56:00;9.90;;;4.33;;
38843;SDS011;24596;48.080;8.362;2023-07-20T04:58:25;9.68;;;4.20;;
38843;SDS011;24596;48.080;8.362;2023-07-20T05:00:51;8.57;;;4.23;;
38843;SDS011;24596;48.080;8.362;2023-07-20T05:03:16;14.90;;;5.75;;
38843;SDS011;24596;48.080;8.362;2023-07-20T05:05:42;9.30;;;3.95;;
38843;SDS011;24596;48.080;8.362;2023-07-20T05:08:07;7.35;;;3.83;;
38843;SDS011;24596;48.080;8.362;2023-07-20T05:10:32;9.83;;;3.67;;
38843;SDS011;24596;48.080;8.362;2023-07-20T05:12:58;9.00;;;4.10;;
38843;SDS011;24596;48.080;8.362;2023-07-20T05:15:23;9.65;;;4.13;;
38843;SDS011;24596;48.080;8.362;2023-07-20T05:17:49;14.30;;;4.38;;
38843;SDS011;24596;48.080;8.362;2023-07-20T05:20:14;11.88;;;4.25;;
38843;SDS011;24596;48.080;8.362;2023-07-20T05:22:39;11.68;;;4.50;;
38843;SDS011;24596;48.080;8.362;2023-07-20T05:25:08;23.50;;;6.00;;
38843;SDS011;24596;48.080;8.362;2023-07-20T05:27:34;26.80;;;6.40;;
38843;SDS011;24596;48.080;8.362;2023-07-20T05:29:59;34.72;;;6.65;;
38843;SDS011;24596;48.080;8.362;2023-07-20T05:32:24;12.77;;;4.07;;
38843;SDS011;24596;48.080;8.362;2023-07-20T05:34:53;8.77;;;3.83;;
38843;SDS011;24596;48.080;8.362;2023-07-20T05:37:19;8.85;;;3.55;;
38843;SDS011;24596;48.080;8.362;2023-07-20T05:39:44;8.23;;;3.88;;
38843;SDS011;24596;48.080;8.362;2023-07-20T05:42:09;6.47;;;3.23;;
38843;SDS011;24596;48.080;8.362;2023-07-20T05:44:34;7.63;;;3.35;;
38843;SDS011;24596;48.080;8.362;2023-07-20T05:47:00;11.32;;;4.30;;
38843;SDS011;24596;48.080;8.362;2023-07-20T05:49:25;8.85;;;3.47;;
38843;SDS011;24596;48.080;8.362;2023-07-20T05:51:50;12.10;;;3.60;;
38843;SDS011;24596;48.080;8.362;2023-07-20T05:54:15;10.63;;;2.88;;
38843;SDS011;24596;48.080;8.362;2023-07-20T05:56:41;10.75;;;3.28;;
38843;SDS011;24596;48.080;8.362;2023-07-20T05:59:06;9.93;;;3.30;;
38843;SDS011;24596;48.080;8.362;2023-07-20T06:01:31;7.00;;;3.42;;
38843;SDS011;24596;48.080;8.362;2023-07-20T06:03:56;10.57;;;3.57;;
38843;SDS011;24596;48.080;8.362;2023-07-20T06:06:22;9.63;;;3.20;;
38843;SDS011;24596;48.080;8.362;2023-07-20T06:08:47;9.52;;;3.83;;
38843;SDS011;24596;48.080;8.362;2023-07-20T06:11:12;10.27;;;3.37;;
38843;SDS011;24596;48.080;8.362;2023-07-20T06:13:37;9.60;;;3.70;;
38843;SDS011;24596;48.080;8.362;2023-07-20T06:16:03;7.27;;;3.20;;
38843;SDS011;24596;48.080;8.362;2023-07-20T06:18:28;7.03;;;3.10;;
38843;SDS011;24596;48.080;8.362;2023-07-20T06:20:53;7.95;;;2.47;;
38843;SDS011;24596;48.080;8.362;2023-07-20T06:23:19;7.45;;;3.08;;
38843;SDS011;24596;48.080;8.362;2023-07-20T06:25:44;6.38;;;2.67;;
38843;SDS011;24596;48.080;8.362;2023-07-20T06:28:09;6.28;;;3.13;;
38843;SDS011;24596;48.080;8.362;2023-07-20T06:30:35;9.17;;;2.67;;
38843;SDS011;24596;48.080;8.362;2023-07-20T06:33:00;9.15;;;3.25;;
38843;SDS011;24596;48.080;8.362;2023-07-20T06:35:25;11.85;;;2.97;;
38843;SDS011;24596;48.080;8.362;2023-07-20T06:37:51;8.55;;;2.90;;
38843;SDS011;24596;48.080;8.362;2023-07-20T06:40:16;6.45;;;2.90;;
38843;SDS011;24596;48.080;8.362;2023-07-20T06:42:42;5.65;;;2.53;;
38843;SDS011;24596;48.080;8.362;2023-07-20T06:45:07;7.45;;;2.88;;
38843;SDS011;24596;48.080;8.362;2023-07-20T06:47:33;7.97;;;2.13;;
38843;SDS011;24596;48.080;8.362;2023-07-20T06:49:59;6.03;;;2.38;;
38843;SDS011;24596;48.080;8.362;2023-07-20T06:52:24;7.85;;;2.55;;
38843;SDS011;24596;48.080;8.362;2023-07-20T06:54:49;7.90;;;2.92;;
38843;SDS011;24596;48.080;8.362;2023-07-20T06:57:14;5.38;;;2.20;;
38843;SDS011;24596;48.080;8.362;2023-07-20T06:59:40;9.15;;;3.00;;
38843;SDS011;24596;48.080;8.362;2023-07-20T07:02:05;5.90;;;2.27;;
38843;SDS011;24596;48.080;8.362;2023-07-20T07:04:31;7.07;;;2.72;;
38843;SDS011;24596;48.080;8.362;2023-07-20T07:06:56;6.30;;;2.50;;
38843;SDS011;24596;48.080;8.362;2023-07-20T07:09:21;4.32;;;1.98;;
38843;SDS011;24596;48.080;8.362;2023-07-20T07:11:46;5.90;;;2.10;;
38843;SDS011;24596;48.080;8.362;2023-07-20T07:14:12;11.15;;;2.80;;
38843;SDS011;24596;48.080;8.362;2023-07-20T07:16:37;6.80;;;2.20;;
38843;SDS011;24596;48.080;8.362;2023-07-20T07:19:02;4.93;;;2.00;;
38843;SDS011;24596;48.080;8.362;2023-07-20T07:21:28;8.45;;;2.55;;
38843;SDS011;24596;48.080;8.362;2023-07-20T07:23:54;4.10;;;2.10;;
38843;SDS011;24596;48.080;8.362;2023-07-20T07:26:22;5.93;;;2.53;;
38843;SDS011;24596;48.080;8.362;2023-07-20T07:28:47;6.38;;;2.30;;
38843;SDS011;24596;48.080;8.362;2023-07-20T07:31:12;7.47;;;2.50;;
38843;SDS011;24596;48.080;8.362;2023-07-20T07:33:37;6.72;;;2.38;;
38843;SDS011;24596;48.080;8.362;2023-07-20T07:36:03;8.63;;;3.42;;
38843;SDS011;24596;48.080;8.362;2023-07-20T07:38:28;7.90;;;2.35;;
38843;SDS011;24596;48.080;8.362;2023-07-20T07:40:53;5.70;;;2.17;;
38843;SDS011;24596;48.080;8.362;2023-07-20T07:43:19;5.40;;;2.00;;
38843;SDS011;24596;48.080;8.362;2023-07-20T07:45:44;5.07;;;2.30;;
38843;SDS011;24596;48.080;8.362;2023-07-20T07:48:09;8.33;;;2.47;;
38843;SDS011;24596;48.080;8.362;2023-07-20T07:50:37;8.55;;;2.33;;
38843;SDS011;24596;48.080;8.362;2023-07-20T07:53:03;6.93;;;2.30;;
38843;SDS011;24596;48.080;8.362;2023-07-20T07:55:28;6.07;;;2.50;;
38843;SDS011;24596;48.080;8.362;2023-07-20T07:57:53;4.22;;;1.70;;
38843;SDS011;24596;48.080;8.362;2023-07-20T08:00:19;5.00;;;2.20;;
38843;SDS011;24596;48.080;8.362;2023-07-20T08:02:44;8.00;;;2.40;;
38843;SDS011;24596;48.080;8.362;2023-07-20T08:05:11;6.20;;;2.47;;
38843;SDS011;24596;48.080;8.362;2023-07-20T08:07:37;13.18;;;2.88;;
38843;SDS011;24596;48.080;8.362;2023-07-20T08:10:02;6.33;;;2.53;;
38843;SDS011;24596;48.080;8.362;2023-07-20T08:12:27;5.75;;;2.67;;
38843;SDS011;24596;48.080;8.362;2023-07-20T08:14:53;9.23;;;3.17;;
38843;SDS011;24596;48.080;8.362;2023-07-20T08:17:18;10.30;;;2.40;;
38843;SDS011;24596;48.080;8.362;2023-07-20T08:19:43;6.40;;;2.60;;
38843;SDS011;24596;48.080;8.362;2023-07-20T08:22:09;7.25;;;2.75;;
38843;SDS011;24596;48.080;8.362;2023-07-20T08:24:34;7.03;;;2.45;;
38843;SDS011;24596;48.080;8.362;2023-07-20T08:26:59;6.70;;;2.42;;
38843;SDS011;24596;48.080;8.362;2023-07-20T08:29:24;6.85;;;1.88;;
38843;SDS011;24596;48.080;8.362;2023-07-20T08:31:50;5.38;;;1.80;;
38843;SDS011;24596;48.080;8.362;2023-07-20T08:34:15;4.85;;;2.38;;
38843;SDS011;24596;48.080;8.362;2023-07-20T08:36:40;9.27;;;1.90;;
38843;SDS011;24596;48.080;8.362;2023-07-20T08:39:06;5.10;;;2.00;;
38843;SDS011;24596;48.080;8.362;2023-07-20T08:41:33;9.20;;;2.40;;
38843;SDS011;24596;48.080;8.362;2023-07-20T08:43:58;6.35;;;1.90;;
38843;SDS011;24596;48.080;8.362;2023-07-20T08:46:24;6.00;;;2.10;;
38843;SDS011;24596;48.080;8.362;2023-07-20T08:48:51;5.93;;;1.90;;
38843;SDS011;24596;48.080;8.362;2023-07-20T08:51:17;4.45;;;2.03;;
38843;SDS011;24596;48.080;8.362;2023-07-20T08:53:43;5.90;;;2.00;;
38843;SDS011;24596;48.080;8.362;2023-07-20T08:56:10;6.90;;;1.85;;
38843;SDS011;24596;48.080;8.362;2023-07-20T08:58:36;8.00;;;1.98;;
38843;SDS011;24596;48.080;8.362;2023-07-20T09:01:02;7.30;;;1.80;;
38843;SDS011;24596;48.080;8.362;2023-07-20T09:03:28;4.63;;;1.85;;
38843;SDS011;24596;48.080;8.362;2023-07-20T09:05:53;4.63;;;2.47;;
38843;SDS011;24596;48.080;8.362;2023-07-20T09:08:18;7.05;;;2.10;;
38843;SDS011;24596;48.080;8.362;2023-07-20T09:10:44;4.27;;;1.80;;
38843;SDS011;24596;48.080;8.362;2023-07-20T09:13:09;7.83;;;1.70;;
38843;SDS011;24596;48.080;8.362;2023-07-20T09:15:34;6.55;;;1.85;;
38843;SDS011;24596;48.080;8.362;2023-07-20T09:18:01;5.25;;;1.88;;
38843;SDS011;24596;48.080;8.362;2023-07-20T09:20:26;5.38;;;1.75;;
38843;SDS011;24596;48.080;8.362;2023-07-20T09:22:51;4.20;;;1.98;;
38843;SDS011;24596;48.080;8.362;2023-07-20T09:25:18;5.93;;;1.92;;
38843;SDS011;24596;48.080;8.362;2023-07-20T09:27:45;4.78;;;1.67;;
38843;SDS011;24596;48.080;8.362;2023-07-20T09:30:11;5.65;;;2.08;;
38843;SDS011;24596;48.080;8.362;2023-07-20T09:32:43;5.93;;;2.13;;
38843;SDS011;24596;48.080;8.362;2023-07-20T09:35:12;5.25;;;1.77;;
38843;SDS011;24596;48.080;8.362;2023-07-20T09:37:38;6.55;;;1.90;;
38843;SDS011;24596;48.080;8.362;2023-07-20T09:40:03;7.67;;;1.83;;
38843;SDS011;24596;48.080;8.362;2023-07-20T09:42:31;4.93;;;1.67;;
38843;SDS011;24596;48.080;8.362;2023-07-20T09:44:56;5.40;;;2.00;;
38843;SDS011;24596;48.080;8.362;2023-07-20T09:47:22;5.93;;;1.92;;
38843;SDS011;24596;48.080;8.362;2023-07-20T09:49:47;6.90;;;2.25;;
38843;SDS011;24596;48.080;8.362;2023-07-20T09:52:12;5.17;;;2.00;;
38843;SDS011;24596;48.080;8.362;2023-07-20T09:54:40;7.55;;;2.25;;
38843;SDS011;24596;48.080;8.362;2023-07-20T09:57:07;4.43;;;1.80;;
38843;SDS011;24596;48.080;8.362;2023-07-20T09:59:33;5.20;;;2.03;;
38843;SDS011;24596;48.080;8.362;2023-07-20T10:01:59;7.63;;;4.00;;
38843;SDS011;24596;48.080;8.362;2023-07-20T10:04:25;9.02;;;2.67;;
38843;SDS011;24596;48.080;8.362;2023-07-20T10:06:51;6.32;;;1.80;;
38843;SDS011;24596;48.080;8.362;2023-07-20T10:09:19;5.80;;;1.77;;
38843;SDS011;24596;48.080;8.362;2023-07-20T10:11:48;4.13;;;1.80;;
38843;SDS011;24596;48.080;8.362;2023-07-20T10:14:14;6.45;;;1.92;;
38843;SDS011;24596;48.080;8.362;2023-07-20T10:16:43;4.97;;;2.00;;
38843;SDS011;24596;48.080;8.362;2023-07-20T10:21:47;7.60;;;2.10;;
38843;SDS011;24596;48.080;8.362;2023-07-20T10:24:13;7.63;;;2.30;;
38843;SDS011;24596;48.080;8.362;2023-07-20T10:26:38;5.55;;;2.17;;
38843;SDS011;24596;48.080;8.362;2023-07-20T10:29:03;11.40;;;2.90;;
38843;SDS011;24596;48.080;8.362;2023-07-20T10:31:29;6.60;;;1.92;;
38843;SDS011;24596;48.080;8.362;2023-07-20T10:33:57;4.88;;;1.80;;
38843;SDS011;24596;48.080;8.362;2023-07-20T10:36:26;4.68;;;1.90;;
38843;SDS011;24596;48.080;8.362;2023-07-20T10:38:55;5.45;;;1.63;;
38843;SDS011;24596;48.080;8.362;2023-07-20T10:43:49;3.90;;;1.50;;
38843;SDS011;24596;48.080;8.362;2023-07-20T10:46:17;6.85;;;1.98;;
38843;SDS011;24596;48.080;8.362;2023-07-20T10:49:01;6.13;;;2.00;;
38843;SDS011;24596;48.080;8.362;2023-07-20T10:51:27;4.75;;;1.80;;
38843;SDS011;24596;48.080;8.362;2023-07-20T10:53:53;6.50;;;1.85;;
38843;SDS011;24596;48.080;8.362;2023-07-20T10:56:22;5.75;;;1.63;;
38843;SDS011;24596;48.080;8.362;2023-07-20T10:58:48;3.65;;;1.70;;
38843;SDS011;24596;48.080;8.362;2023-07-20T11:01:14;5.70;;;1.67;;
38843;SDS011;24596;48.080;8.362;2023-07-20T11:03:40;7.55;;;2.20;;
38843;SDS011;24596;48.080;8.362;2023-07-20T11:08:50;3.75;;;1.40;;
38843;SDS011;24596;48.080;8.362;2023-07-20T11:11:26;4.55;;;1.98;;
38843;SDS011;24596;48.080;8.362;2023-07-20T11:14:05;4.22;;;2.00;;
38843;SDS011;24596;48.080;8.362;2023-07-20T11:16:33;4.35;;;1.70;;
38843;SDS011;24596;48.080;8.362;2023-07-20T11:18:59;5.10;;;1.70;;
38843;SDS011;24596;48.080;8.362;2023-07-20T11:21:24;5.60;;;2.08;;
38843;SDS011;24596;48.080;8.362;2023-07-20T11:23:50;5.40;;;1.95;;
38843;SDS011;24596;48.080;8.362;2023-07-20T11:26:16;4.72;;;1.67;;
38843;SDS011;24596;48.080;8.362;2023-07-20T11:28:47;5.43;;;1.83;;
38843;SDS011;24596;48.080;8.362;2023-07-20T11:31:14;5.15;;;1.83;;
38843;SDS011;24596;48.080;8.362;2023-07-20T11:33:41;5.82;;;1.73;;
38843;SDS011;24596;48.080;8.362;2023-07-20T11:36:07;3.78;;;1.60;;
38843;SDS011;24596;48.080;8.362;2023-07-20T11:38:33;5.05;;;1.65;;
38843;SDS011;24596;48.080;8.362;2023-07-20T11:40:58;6.63;;;1.80;;
38843;SDS011;24596;48.080;8.362;2023-07-20T11:43:23;4.72;;;1.92;;
38843;SDS011;24596;48.080;8.362;2023-07-20T11:45:49;5.55;;;2.00;;
38843;SDS011;24596;48.080;8.362;2023-07-20T11:48:15;4.10;;;1.52;;
38843;SDS011;24596;48.080;8.362;2023-07-20T11:50:40;4.00;;;1.58;;
38843;SDS011;24596;48.080;8.362;2023-07-20T11:53:05;4.90;;;1.80;;
38843;SDS011;24596;48.080;8.362;2023-07-20T11:55:31;4.35;;;1.63;;
38843;SDS011;24596;48.080;8.362;2023-07-20T11:58:03;3.97;;;1.40;;
38843;SDS011;24596;48.080;8.362;2023-07-20T12:00:28;3.28;;;1.67;;
38843;SDS011;24596;48.080;8.362;2023-07-20T12:02:53;3.73;;;1.50;;
38843;SDS011;24596;48.080;8.362;2023-07-20T12:05:19;3.70;;;1.30;;
38843;SDS011;24596;48.080;8.362;2023-07-20T12:07:44;4.03;;;1.42;;
38843;SDS011;24596;48.080;8.362;2023-07-20T12:10:10;6.15;;;1.70;;
38843;SDS011;24596;48.080;8.362;2023-07-20T12:12:39;4.93;;;1.73;;
38843;SDS011;24596;48.080;8.362;2023-07-20T12:15:15;3.85;;;1.48;;
38843;SDS011;24596;48.080;8.362;2023-07-20T12:17:49;5.32;;;1.83;;
38843;SDS011;24596;48.080;8.362;2023-07-20T12:20:24;4.30;;;1.58;;
38843;SDS011;24596;48.080;8.362;2023-07-20T12:22:49;5.00;;;1.45;;
38843;SDS011;24596;48.080;8.362;2023-07-20T12:25:14;5.13;;;1.53;;
38843;SDS011;24596;48.080;8.362;2023-07-20T12:27:40;4.78;;;1.50;;
38843;SDS011;24596;48.080;8.362;2023-07-20T12:30:06;4.95;;;1.50;;
38843;SDS011;24596;48.080;8.362;2023-07-20T12:32:32;3.80;;;1.52;;
38843;SDS011;24596;48.080;8.362;2023-07-20T12:34:58;6.00;;;2.17;;
38843;SDS011;24596;48.080;8.362;2023-07-20T12:37:25;3.55;;;1.70;;
38843;SDS011;24596;48.080;8.362;2023-07-20T12:39:50;4.57;;;2.00;;
38843;SDS011;24596;48.080;8.362;2023-07-20T12:42:15;5.20;;;1.80;;
38843;SDS011;24596;48.080;8.362;2023-07-20T12:44:42;4.60;;;1.80;;
38843;SDS011;24596;48.080;8.362;2023-07-20T12:47:07;5.13;;;1.80;;
38843;SDS011;24596;48.080;8.362;2023-07-20T12:49:32;4.07;;;1.92;;
38843;SDS011;24596;48.080;8.362;2023-07-20T12:51:57;6.63;;;1.67;;
38843;SDS011;24596;48.080;8.362;2023-07-20T12:54:23;5.50;;;1.80;;
38843;SDS011;24596;48.080;8.362;2023-07-20T12:56:48;4.78;;;1.77;;
38843;SDS011;24596;48.080;8.362;2023-07-20T12:59:14;5.38;;;1.92;;
38843;SDS011;24596;48.080;8.362;2023-07-20T13:01:39;4.72;;;1.75;;
38843;SDS011;24596;48.080;8.362;2023-07-20T13:04:06;3.55;;;1.63;;
38843;SDS011;24596;48.080;8.362;2023-07-20T13:06:34;9.70;;;1.80;;
38843;SDS011;24596;48.080;8.362;2023-07-20T13:08:59;4.30;;;1.55;;
38843;SDS011;24596;48.080;8.362;2023-07-20T13:11:24;3.15;;;1.50;;
38843;SDS011;24596;48.080;8.362;2023-07-20T13:13:50;4.88;;;1.50;;
38843;SDS011;24596;48.080;8.362;2023-07-20T13:16:15;7.28;;;1.95;;
38843;SDS011;24596;48.080;8.362;2023-07-20T13:18:40;3.35;;;1.35;;
38843;SDS011;24596;48.080;8.362;2023-07-20T13:21:05;4.10;;;1.70;;
38843;SDS011;24596;48.080;8.362;2023-07-20T13:23:35;3.75;;;1.60;;
38843;SDS011;24596;48.080;8.362;2023-07-20T13:26:00;2.80;;;1.50;;
38843;SDS011;24596;48.080;8.362;2023-07-20T13:28:25;4.22;;;1.55;;
38843;SDS011;24596;48.080;8.362;2023-07-20T13:30:50;3.73;;;1.53;;
38843;SDS011;24596;48.080;8.362;2023-07-20T13:33:16;4.72;;;1.70;;
38843;SDS011;24596;48.080;8.362;2023-07-20T13:35:41;3.80;;;1.57;;
38843;SDS011;24596;48.080;8.362;2023-07-20T13:38:06;3.53;;;1.40;;
38843;SDS011;24596;48.080;8.362;2023-07-20T13:40:32;4.30;;;1.63;;
38843;SDS011;24596;48.080;8.362;2023-07-20T13:42:57;4.95;;;2.05;;
38843;SDS011;24596;48.080;8.362;2023-07-20T13:45:22;5.20;;;2.00;;
38843;SDS011;24596;48.080;8.362;2023-07-20T13:47:47;4.28;;;1.77;;
38843;SDS011;24596;48.080;8.362;2023-07-20T13:50:13;4.78;;;1.90;;
38843;SDS011;24596;48.080;8.362;2023-07-20T13:52:38;5.38;;;1.70;;
38843;SDS011;24596;48.080;8.362;2023-07-20T13:55:03;5.18;;;2.05;;
38843;SDS011;24596;48.080;8.362;2023-07-20T13:57:30;4.85;;;2.05;;
38843;SDS011;24596;48.080;8.362;2023-07-20T13:59:56;3.55;;;1.70;;
38843;SDS011;24596;48.080;8.362;2023-07-20T14:02:21;5.75;;;2.10;;
38843;SDS011;24596;48.080;8.362;2023-07-20T14:04:46;7.33;;;2.00;;
38843;SDS011;24596;48.080;8.362;2023-07-20T14:07:13;5.97;;;2.22;;
38843;SDS011;24596;48.080;8.362;2023-07-20T14:09:38;4.87;;;1.77;;
38843;SDS011;24596;48.080;8.362;2023-07-20T14:12:03;4.53;;;1.73;;
38843;SDS011;24596;48.080;8.362;2023-07-20T14:14:29;6.35;;;2.40;;
38843;SDS011;24596;48.080;8.362;2023-07-20T14:16:54;5.37;;;1.83;;
38843;SDS011;24596;48.080;8.362;2023-07-20T14:19:21;5.00;;;1.85;;
38843;SDS011;24596;48.080;8.362;2023-07-20T14:21:46;6.63;;;2.00;;
38843;SDS011;24596;48.080;8.362;2023-07-20T14:24:11;6.50;;;1.63;;
38843;SDS011;24596;48.080;8.362;2023-07-20T14:26:37;3.43;;;1.50;;
38843;SDS011;24596;48.080;8.362;2023-07-20T14:29:02;4.23;;;1.67;;
38843;SDS011;24596;48.080;8.362;2023-07-20T14:31:27;5.65;;;2.38;;
38843;SDS011;24596;48.080;8.362;2023-07-20T14:33:52;6.50;;;2.10;;
38843;SDS011;24596;48.080;8.362;2023-07-20T14:36:18;3.85;;;1.73;;
38843;SDS011;24596;48.080;8.362;2023-07-20T14:38:43;7.88;;;2.50;;
38843;SDS011;24596;48.080;8.362;2023-07-20T14:41:08;5.50;;;2.10;;
38843;SDS011;24596;48.080;8.362;2023-07-20T14:43:34;3.83;;;1.63;;
38843;SDS011;24596;48.080;8.362;2023-07-20T14:45:59;4.88;;;1.80;;
38843;SDS011;24596;48.080;8.362;2023-07-20T14:48:24;3.20;;;1.80;;
38843;SDS011;24596;48.080;8.362;2023-07-20T14:50:50;5.93;;;2.03;;
38843;SDS011;24596;48.080;8.362;2023-07-20T14:53:15;4.57;;;1.87;;
38843;SDS011;24596;48.080;8.362;2023-07-20T14:55:41;4.43;;;1.98;;